sensor_id;sensor_type;location;lat;lon;timestamp;temperature;humidity
5930;DHT22;2990;48.746;9.236;2023-04-09T00:00:37;6.40;99.90
5930;DHT22;2990;48.746;9.236;2023-04-09T00:03:03;6.40;99.90
5930;DHT22;2990;48.746;9.236;2023-04-09T00:05:29;6.40;99.90
5930;DHT22;2990;48.746;9.236;2023-04-09T00:07:54;6.40;99.90
5930;DHT22;2990;48.746;9.236;2023-04-09T00:10:20;6.40;99.90
5930;DHT22;2990;48.746;9.236;2023-04-09T00:12:46;6.40;99.90
5930;DHT22;2990;48.746;9.236;2023-04-09T00:15:11;6.40;99.90
5930;DHT22;2990;48.746;9.236;2023-04-09T00:17:37;6.50;99.90
5930;DHT22;2990;48.746;9.236;2023-04-09T00:20:03;6.40;1.00
5930;DHT22;2990;48.746;9.236;2023-04-09T00:22:29;6.40;99.90
5930;DHT22;2990;48.746;9.236;2023-04-09T00:24:55;6.40;99.90
5930;DHT22;2990;48.746;9.236;2023-04-09T00:27:20;6.50;99.90
5930;DHT22;2990;48.746;9.236;2023-04-09T00:29:46;6.40;99.90
5930;DHT22;2990;48.746;9.236;2023-04-09T00:32:12;6.50;99.90
5930;DHT22;2990;48.746;9.236;2023-04-09T00:34:38;6.40;99.90
5930;DHT22;2990;48.746;9.236;2023-04-09T00:37:04;6.40;99.90
5930;DHT22;2990;48.746;9.236;2023-04-09T00:39:30;6.40;99.90
5930;DHT22;2990;48.746;9.236;2023-04-09T00:41:59;6.40;48.90
5930;DHT22;2990;48.746;9.236;2023-04-09T00:44:27;6.40;1.00
5930;DHT22;2990;48.746;9.236;2023-04-09T00:46:53;6.40;1.00
5930;DHT22;2990;48.746;9.236;2023-04-09T00:49:19;6.40;1.00
5930;DHT22;2990;48.746;9.236;2023-04-09T00:51:45;6.40;1.00
5930;DHT22;2990;48.746;9.236;2023-04-09T00:54:11;6.40;1.00
5930;DHT22;2990;48.746;9.236;2023-04-09T00:56:37;6.40;1.00
5930;DHT22;2990;48.746;9.236;2023-04-09T00:59:03;6.50;1.00
5930;DHT22;2990;48.746;9.236;2023-04-09T01:01:29;6.40;1.00
5930;DHT22;2990;48.746;9.236;2023-04-09T01:03:55;6.40;7.50
5930;DHT22;2990;48.746;9.236;2023-04-09T01:06:46;6.40;1.00
5930;DHT22;2990;48.746;9.236;2023-04-09T01:09:20;6.40;37.00
5930;DHT22;2990;48.746;9.236;2023-04-09T01:12:07;6.40;99.90
5930;DHT22;2990;48.746;9.236;2023-04-09T01:14:38;6.40;99.90
5930;DHT22;2990;48.746;9.236;2023-04-09T01:17:08;6.40;99.90
5930;DHT22;2990;48.746;9.236;2023-04-09T01:19:43;6.40;99.90
5930;DHT22;2990;48.746;9.236;2023-04-09T01:22:39;6.30;99.90
5930;DHT22;2990;48.746;9.236;2023-04-09T01:25:18;6.30;99.90
5930;DHT22;2990;48.746;9.236;2023-04-09T01:28:17;6.30;1.00
5930;DHT22;2990;48.746;9.236;2023-04-09T01:30:47;6.30;30.00
5930;DHT22;2990;48.746;9.236;2023-04-09T01:33:14;6.30;76.20
5930;DHT22;2990;48.746;9.236;2023-04-09T01:35:42;6.30;99.90
5930;DHT22;2990;48.746;9.236;2023-04-09T01:38:10;6.30;99.90
5930;DHT22;2990;48.746;9.236;2023-04-09T01:40:36;6.30;99.90
5930;DHT22;2990;48.746;9.236;2023-04-09T01:43:02;6.20;99.90
5930;DHT22;2990;48.746;9.236;2023-04-09T01:45:27;6.20;1.00
5930;DHT22;2990;48.746;9.236;2023-04-09T01:47:54;6.20;99.90
5930;DHT22;2990;48.746;9.236;2023-04-09T01:50:20;6.20;1.00
5930;DHT22;2990;48.746;9.236;2023-04-09T01:52:46;6.30;1.00
5930;DHT22;2990;48.746;9.236;2023-04-09T01:55:12;6.30;1.00
5930;DHT22;2990;48.746;9.236;2023-04-09T01:57:38;6.40;1.00
5930;DHT22;2990;48.746;9.236;2023-04-09T02:00:08;6.30;1.00
5930;DHT22;2990;48.746;9.236;2023-04-09T02:03:05;6.30;99.90
5930;DHT22;2990;48.746;9.236;2023-04-09T02:05:37;6.30;99.90
5930;DHT22;2990;48.746;9.236;2023-04-09T02:08:06;6.30;1.00
5930;DHT22;2990;48.746;9.236;2023-04-09T02:10:37;6.30;1.00
5930;DHT22;2990;48.746;9.236;2023-04-09T02:13:04;6.30;1.00
5930;DHT22;2990;48.746;9.236;2023-04-09T02:15:34;6.30;1.00
5930;DHT22;2990;48.746;9.236;2023-04-09T02:18:00;6.30;1.00
5930;DHT22;2990;48.746;9.236;2023-04-09T02:20:26;6.20;83.60
5930;DHT22;2990;48.746;9.236;2023-04-09T02:22:52;6.30;99.90
5930;DHT22;2990;48.746;9.236;2023-04-09T02:25:18;6.20;99.90
5930;DHT22;2990;48.746;9.236;2023-04-09T02:27:43;6.20;99.90
5930;DHT22;2990;48.746;9.236;2023-04-09T02:30:09;6.20;99.90
5930;DHT22;2990;48.746;9.236;2023-04-09T02:32:34;6.10;1.00
5930;DHT22;2990;48.746;9.236;2023-04-09T02:35:00;6.10;1.00
5930;DHT22;2990;48.746;9.236;2023-04-09T02:54:27;6.10;1.00
5930;DHT22;2990;48.746;9.236;2023-04-09T02:56:52;6.00;98.40
5930;DHT22;2990;48.746;9.236;2023-04-09T02:59:18;6.00;99.90
5930;DHT22;2990;48.746;9.236;2023-04-09T03:01:43;6.00;99.90
5930;DHT22;2990;48.746;9.236;2023-04-09T03:04:09;6.00;83.50
5930;DHT22;2990;48.746;9.236;2023-04-09T03:06:35;5.90;99.90
5930;DHT22;2990;48.746;9.236;2023-04-09T03:09:00;5.90;99.90
5930;DHT22;2990;48.746;9.236;2023-04-09T03:11:26;5.90;99.90
5930;DHT22;2990;48.746;9.236;2023-04-09T03:13:51;5.90;99.90
5930;DHT22;2990;48.746;9.236;2023-04-09T03:16:17;5.90;99.90
5930;DHT22;2990;48.746;9.236;2023-04-09T03:18:42;5.90;99.90
5930;DHT22;2990;48.746;9.236;2023-04-09T03:21:08;5.90;99.90
5930;DHT22;2990;48.746;9.236;2023-04-09T03:23:34;5.90;99.90
5930;DHT22;2990;48.746;9.236;2023-04-09T03:26:08;5.90;99.90
5930;DHT22;2990;48.746;9.236;2023-04-09T03:28:34;5.90;99.90
5930;DHT22;2990;48.746;9.236;2023-04-09T03:30:59;5.90;99.90
5930;DHT22;2990;48.746;9.236;2023-04-09T03:33:25;5.90;99.90
5930;DHT22;2990;48.746;9.236;2023-04-09T03:35:51;5.90;99.90
5930;DHT22;2990;48.746;9.236;2023-04-09T03:38:16;5.90;99.90
5930;DHT22;2990;48.746;9.236;2023-04-09T03:40:42;5.90;99.90
5930;DHT22;2990;48.746;9.236;2023-04-09T03:43:08;5.90;99.90
5930;DHT22;2990;48.746;9.236;2023-04-09T03:45:33;5.90;99.90
5930;DHT22;2990;48.746;9.236;2023-04-09T03:47:59;5.90;99.90
5930;DHT22;2990;48.746;9.236;2023-04-09T03:50:24;5.90;99.90
5930;DHT22;2990;48.746;9.236;2023-04-09T03:52:50;5.90;99.90
5930;DHT22;2990;48.746;9.236;2023-04-09T03:55:15;5.80;99.90
5930;DHT22;2990;48.746;9.236;2023-04-09T03:57:41;5.90;99.90
5930;DHT22;2990;48.746;9.236;2023-04-09T04:00:06;5.90;99.90
5930;DHT22;2990;48.746;9.236;2023-04-09T04:02:32;5.80;99.90
5930;DHT22;2990;48.746;9.236;2023-04-09T04:04:58;5.80;99.90
5930;DHT22;2990;48.746;9.236;2023-04-09T04:07:24;5.80;99.90
5930;DHT22;2990;48.746;9.236;2023-04-09T04:09:50;5.80;99.90
5930;DHT22;2990;48.746;9.236;2023-04-09T04:12:15;5.70;99.90
5930;DHT22;2990;48.746;9.236;2023-04-09T04:14:41;5.70;99.90
5930;DHT22;2990;48.746;9.236;2023-04-09T04:17:06;5.70;99.90
5930;DHT22;2990;48.746;9.236;2023-04-09T04:19:32;5.70;99.90
5930;DHT22;2990;48.746;9.236;2023-04-09T04:21:57;5.60;99.90
5930;DHT22;2990;48.746;9.236;2023-04-09T04:24:23;5.60;99.90
5930;DHT22;2990;48.746;9.236;2023-04-09T04:26:48;5.60;99.90
5930;DHT22;2990;48.746;9.236;2023-04-09T04:29:14;5.60;99.90
5930;DHT22;2990;48.746;9.236;2023-04-09T04:31:39;5.60;99.90
5930;DHT22;2990;48.746;9.236;2023-04-09T04:34:05;5.60;99.90
5930;DHT22;2990;48.746;9.236;2023-04-09T04:36:30;5.60;99.90
5930;DHT22;2990;48.746;9.236;2023-04-09T04:38:56;5.60;99.90
5930;DHT22;2990;48.746;9.236;2023-04-09T04:41:21;5.60;99.90
5930;DHT22;2990;48.746;9.236;2023-04-09T04:43:47;5.60;99.90
5930;DHT22;2990;48.746;9.236;2023-04-09T04:46:12;5.60;1.00
5930;DHT22;2990;48.746;9.236;2023-04-09T04:48:38;5.60;1.00
5930;DHT22;2990;48.746;9.236;2023-04-09T04:51:04;5.60;1.00
5930;DHT22;2990;48.746;9.236;2023-04-09T04:53:29;5.60;1.00
5930;DHT22;2990;48.746;9.236;2023-04-09T04:55:55;5.60;99.90
5930;DHT22;2990;48.746;9.236;2023-04-09T04:58:20;5.70;99.90
5930;DHT22;2990;48.746;9.236;2023-04-09T05:00:46;5.70;99.90
5930;DHT22;2990;48.746;9.236;2023-04-09T05:03:12;5.70;99.90
5930;DHT22;2990;48.746;9.236;2023-04-09T05:05:37;5.80;99.90
5930;DHT22;2990;48.746;9.236;2023-04-09T05:08:03;5.80;99.90
5930;DHT22;2990;48.746;9.236;2023-04-09T05:10:29;5.90;99.90
5930;DHT22;2990;48.746;9.236;2023-04-09T05:12:55;6.00;99.90
5930;DHT22;2990;48.746;9.236;2023-04-09T05:15:20;6.10;99.90
5930;DHT22;2990;48.746;9.236;2023-04-09T05:17:46;6.20;99.90
5930;DHT22;2990;48.746;9.236;2023-04-09T05:20:12;6.20;43.60
5930;DHT22;2990;48.746;9.236;2023-04-09T05:22:37;6.20;1.00
5930;DHT22;2990;48.746;9.236;2023-04-09T05:25:03;6.20;1.00
5930;DHT22;2990;48.746;9.236;2023-04-09T05:27:29;6.20;1.00
5930;DHT22;2990;48.746;9.236;2023-04-09T05:29:54;6.10;1.00
5930;DHT22;2990;48.746;9.236;2023-04-09T05:32:20;6.10;99.90
5930;DHT22;2990;48.746;9.236;2023-04-09T05:34:45;6.20;99.90
5930;DHT22;2990;48.746;9.236;2023-04-09T05:37:11;6.20;99.90
5930;DHT22;2990;48.746;9.236;2023-04-09T05:39:37;6.10;99.90
5930;DHT22;2990;48.746;9.236;2023-04-09T05:42:02;6.10;1.00
5930;DHT22;2990;48.746;9.236;2023-04-09T05:44:28;6.10;1.00
5930;DHT22;2990;48.746;9.236;2023-04-09T05:46:54;6.20;1.00
5930;DHT22;2990;48.746;9.236;2023-04-09T05:49:19;6.10;1.00
5930;DHT22;2990;48.746;9.236;2023-04-09T05:51:45;6.20;1.00
5930;DHT22;2990;48.746;9.236;2023-04-09T05:54:10;6.30;1.00
5930;DHT22;2990;48.746;9.236;2023-04-09T05:56:36;6.50;1.00
5930;DHT22;2990;48.746;9.236;2023-04-09T05:59:02;6.70;99.90
5930;DHT22;2990;48.746;9.236;2023-04-09T06:01:27;6.90;56.40
5930;DHT22;2990;48.746;9.236;2023-04-09T06:03:53;7.00;1.00
5930;DHT22;2990;48.746;9.236;2023-04-09T06:06:19;7.20;1.00
5930;DHT22;2990;48.746;9.236;2023-04-09T06:08:45;7.30;99.90
5930;DHT22;2990;48.746;9.236;2023-04-09T06:11:11;7.40;99.90
5930;DHT22;2990;48.746;9.236;2023-04-09T06:13:37;7.40;1.00
5930;DHT22;2990;48.746;9.236;2023-04-09T06:16:06;7.50;99.90
5930;DHT22;2990;48.746;9.236;2023-04-09T06:18:33;7.50;1.00
5930;DHT22;2990;48.746;9.236;2023-04-09T06:21:05;7.40;1.00
5930;DHT22;2990;48.746;9.236;2023-04-09T06:23:32;7.40;99.90
5930;DHT22;2990;48.746;9.236;2023-04-09T06:25:58;7.50;1.00
5930;DHT22;2990;48.746;9.236;2023-04-09T06:28:24;7.40;1.00
5930;DHT22;2990;48.746;9.236;2023-04-09T06:30:50;7.40;99.90
5930;DHT22;2990;48.746;9.236;2023-04-09T06:33:18;7.50;1.00
5930;DHT22;2990;48.746;9.236;2023-04-09T06:35:44;7.50;1.00
5930;DHT22;2990;48.746;9.236;2023-04-09T06:38:10;7.60;99.90
5930;DHT22;2990;48.746;9.236;2023-04-09T06:40:37;7.60;1.00
5930;DHT22;2990;48.746;9.236;2023-04-09T06:43:03;7.50;1.00
5930;DHT22;2990;48.746;9.236;2023-04-09T06:45:29;7.70;1.00
5930;DHT22;2990;48.746;9.236;2023-04-09T06:47:55;7.70;1.00
5930;DHT22;2990;48.746;9.236;2023-04-09T06:50:21;7.70;77.90
5930;DHT22;2990;48.746;9.236;2023-04-09T06:52:46;7.70;54.50
5930;DHT22;2990;48.746;9.236;2023-04-09T06:55:12;7.80;1.00
5930;DHT22;2990;48.746;9.236;2023-04-09T06:57:38;7.70;1.00
5930;DHT22;2990;48.746;9.236;2023-04-09T07:00:04;7.80;1.00
5930;DHT22;2990;48.746;9.236;2023-04-09T07:02:30;7.80;1.00
5930;DHT22;2990;48.746;9.236;2023-04-09T07:04:56;7.80;1.00
5930;DHT22;2990;48.746;9.236;2023-04-09T07:07:21;7.90;1.00
5930;DHT22;2990;48.746;9.236;2023-04-09T07:09:50;7.90;99.90
5930;DHT22;2990;48.746;9.236;2023-04-09T07:12:26;8.00;1.00
5930;DHT22;2990;48.746;9.236;2023-04-09T07:14:52;8.00;1.00
5930;DHT22;2990;48.746;9.236;2023-04-09T07:17:17;8.00;6.30
5930;DHT22;2990;48.746;9.236;2023-04-09T07:19:43;8.00;1.00
5930;DHT22;2990;48.746;9.236;2023-04-09T07:22:08;8.20;1.00
5930;DHT22;2990;48.746;9.236;2023-04-09T07:24:34;8.20;1.00
5930;DHT22;2990;48.746;9.236;2023-04-09T07:27:02;8.30;99.90
5930;DHT22;2990;48.746;9.236;2023-04-09T07:29:31;8.30;99.90
5930;DHT22;2990;48.746;9.236;2023-04-09T07:31:56;8.30;69.20
5930;DHT22;2990;48.746;9.236;2023-04-09T07:34:22;8.40;42.90
5930;DHT22;2990;48.746;9.236;2023-04-09T07:37:05;8.50;1.00
5930;DHT22;2990;48.746;9.236;2023-04-09T07:39:31;8.70;1.00
5930;DHT22;2990;48.746;9.236;2023-04-09T07:41:57;8.80;1.00
5930;DHT22;2990;48.746;9.236;2023-04-09T07:44:22;8.90;1.00
5930;DHT22;2990;48.746;9.236;2023-04-09T07:46:48;9.20;1.00
5930;DHT22;2990;48.746;9.236;2023-04-09T07:49:14;9.30;1.00
5930;DHT22;2990;48.746;9.236;2023-04-09T07:51:40;9.40;1.00
5930;DHT22;2990;48.746;9.236;2023-04-09T07:54:06;9.60;1.00
5930;DHT22;2990;48.746;9.236;2023-04-09T07:56:33;9.60;1.00
5930;DHT22;2990;48.746;9.236;2023-04-09T07:58:58;9.80;1.00
5930;DHT22;2990;48.746;9.236;2023-04-09T08:01:24;9.90;1.00
5930;DHT22;2990;48.746;9.236;2023-04-09T08:03:50;10.20;1.00
5930;DHT22;2990;48.746;9.236;2023-04-09T08:06:16;10.30;1.00
5930;DHT22;2990;48.746;9.236;2023-04-09T08:08:42;10.40;99.90
5930;DHT22;2990;48.746;9.236;2023-04-09T08:11:08;10.50;99.90
5930;DHT22;2990;48.746;9.236;2023-04-09T08:13:33;10.60;99.90
5930;DHT22;2990;48.746;9.236;2023-04-09T08:16:00;10.60;99.90
5930;DHT22;2990;48.746;9.236;2023-04-09T08:18:26;10.70;99.90
5930;DHT22;2990;48.746;9.236;2023-04-09T08:20:52;10.90;99.90
5930;DHT22;2990;48.746;9.236;2023-04-09T08:23:18;11.00;99.90
5930;DHT22;2990;48.746;9.236;2023-04-09T08:25:43;11.00;99.90
5930;DHT22;2990;48.746;9.236;2023-04-09T08:28:09;10.90;99.90
5930;DHT22;2990;48.746;9.236;2023-04-09T08:30:35;11.10;99.90
5930;DHT22;2990;48.746;9.236;2023-04-09T08:33:03;11.20;99.90
5930;DHT22;2990;48.746;9.236;2023-04-09T08:35:32;11.50;99.90
5930;DHT22;2990;48.746;9.236;2023-04-09T08:52:52;11.70;99.90
5930;DHT22;2990;48.746;9.236;2023-04-09T08:55:18;12.30;99.90
5930;DHT22;2990;48.746;9.236;2023-04-09T08:57:43;12.50;99.90
5930;DHT22;2990;48.746;9.236;2023-04-09T09:00:10;12.70;99.90
5930;DHT22;2990;48.746;9.236;2023-04-09T09:02:35;12.80;99.90
5930;DHT22;2990;48.746;9.236;2023-04-09T09:05:02;13.00;99.90
5930;DHT22;2990;48.746;9.236;2023-04-09T09:07:29;13.10;99.90
5930;DHT22;2990;48.746;9.236;2023-04-09T09:09:56;13.20;99.90
5930;DHT22;2990;48.746;9.236;2023-04-09T09:12:40;13.30;99.90
5930;DHT22;2990;48.746;9.236;2023-04-09T09:15:28;13.20;99.90
5930;DHT22;2990;48.746;9.236;2023-04-09T09:17:56;13.20;99.90
5930;DHT22;2990;48.746;9.236;2023-04-09T09:20:22;13.00;99.90
5930;DHT22;2990;48.746;9.236;2023-04-09T09:22:50;12.60;99.90
5930;DHT22;2990;48.746;9.236;2023-04-09T09:25:16;12.90;99.90
5930;DHT22;2990;48.746;9.236;2023-04-09T09:27:41;13.00;99.90
5930;DHT22;2990;48.746;9.236;2023-04-09T09:30:08;13.10;99.90
5930;DHT22;2990;48.746;9.236;2023-04-09T09:32:44;12.80;99.90
5930;DHT22;2990;48.746;9.236;2023-04-09T09:35:10;12.70;99.90
5930;DHT22;2990;48.746;9.236;2023-04-09T09:37:36;12.90;99.90
5930;DHT22;2990;48.746;9.236;2023-04-09T09:40:02;13.10;99.90
5930;DHT22;2990;48.746;9.236;2023-04-09T09:42:28;13.10;99.90
5930;DHT22;2990;48.746;9.236;2023-04-09T09:44:54;13.10;99.90
5930;DHT22;2990;48.746;9.236;2023-04-09T09:47:21;13.10;99.90
5930;DHT22;2990;48.746;9.236;2023-04-09T09:49:48;13.20;99.90
5930;DHT22;2990;48.746;9.236;2023-04-09T09:52:14;13.00;99.90
5930;DHT22;2990;48.746;9.236;2023-04-09T09:54:41;12.60;99.90
5930;DHT22;2990;48.746;9.236;2023-04-09T09:57:09;12.70;99.90
5930;DHT22;2990;48.746;9.236;2023-04-09T09:59:49;12.80;99.90
5930;DHT22;2990;48.746;9.236;2023-04-09T10:02:22;12.50;99.90
5930;DHT22;2990;48.746;9.236;2023-04-09T10:04:49;12.80;99.90
5930;DHT22;2990;48.746;9.236;2023-04-09T10:07:16;13.30;95.40
5930;DHT22;2990;48.746;9.236;2023-04-09T10:09:45;13.80;95.40
5930;DHT22;2990;48.746;9.236;2023-04-09T10:12:13;14.30;99.90
5930;DHT22;2990;48.746;9.236;2023-04-09T10:14:39;14.20;99.90
5930;DHT22;2990;48.746;9.236;2023-04-09T10:17:04;14.00;93.60
5930;DHT22;2990;48.746;9.236;2023-04-09T10:19:36;14.30;27.80
5930;DHT22;2990;48.746;9.236;2023-04-09T10:22:10;14.60;43.50
5930;DHT22;2990;48.746;9.236;2023-04-09T10:24:36;14.40;69.10
5930;DHT22;2990;48.746;9.236;2023-04-09T10:27:10;13.80;96.40
5930;DHT22;2990;48.746;9.236;2023-04-09T10:29:42;13.20;99.90
5930;DHT22;2990;48.746;9.236;2023-04-09T10:32:08;13.30;98.20
5930;DHT22;2990;48.746;9.236;2023-04-09T10:34:42;13.30;40.10
5930;DHT22;2990;48.746;9.236;2023-04-09T10:39:47;13.50;96.90
5930;DHT22;2990;48.746;9.236;2023-04-09T10:42:19;13.40;30.70
5930;DHT22;2990;48.746;9.236;2023-04-09T10:47:32;13.10;92.30
5930;DHT22;2990;48.746;9.236;2023-04-09T10:50:13;13.30;78.70
5930;DHT22;2990;48.746;9.236;2023-04-09T10:52:40;12.90;82.10
5930;DHT22;2990;48.746;9.236;2023-04-09T10:55:06;12.70;94.10
5930;DHT22;2990;48.746;9.236;2023-04-09T10:57:32;12.70;99.90
5930;DHT22;2990;48.746;9.236;2023-04-09T10:59:58;12.80;99.90
5930;DHT22;2990;48.746;9.236;2023-04-09T11:08:03;12.80;92.40
5930;DHT22;2990;48.746;9.236;2023-04-09T11:10:34;12.80;99.50
5930;DHT22;2990;48.746;9.236;2023-04-09T11:13:00;12.70;93.50
5930;DHT22;2990;48.746;9.236;2023-04-09T11:15:26;12.50;92.10
5930;DHT22;2990;48.746;9.236;2023-04-09T11:17:51;12.70;16.50
5930;DHT22;2990;48.746;9.236;2023-04-09T11:20:20;13.20;20.90
5930;DHT22;2990;48.746;9.236;2023-04-09T11:22:48;13.80;27.60
5930;DHT22;2990;48.746;9.236;2023-04-09T11:25:22;14.00;75.40
5930;DHT22;2990;48.746;9.236;2023-04-09T11:27:49;13.40;42.80
5930;DHT22;2990;48.746;9.236;2023-04-09T11:30:15;12.80;49.40
5930;DHT22;2990;48.746;9.236;2023-04-09T11:32:40;12.90;62.20
5930;DHT22;2990;48.746;9.236;2023-04-09T11:35:13;13.10;16.50
5930;DHT22;2990;48.746;9.236;2023-04-09T11:37:39;13.40;28.60
5930;DHT22;2990;48.746;9.236;2023-04-09T11:40:06;13.90;8.50
5930;DHT22;2990;48.746;9.236;2023-04-09T11:42:32;13.90;49.70
5930;DHT22;2990;48.746;9.236;2023-04-09T11:44:58;13.90;72.10
5930;DHT22;2990;48.746;9.236;2023-04-09T11:47:25;13.40;68.30
5930;DHT22;2990;48.746;9.236;2023-04-09T11:49:51;13.40;1.00
5930;DHT22;2990;48.746;9.236;2023-04-09T11:52:18;13.60;1.00
5930;DHT22;2990;48.746;9.236;2023-04-09T11:54:50;14.20;1.00
5930;DHT22;2990;48.746;9.236;2023-04-09T11:57:16;13.80;1.00
5930;DHT22;2990;48.746;9.236;2023-04-09T11:59:41;14.00;1.00
5930;DHT22;2990;48.746;9.236;2023-04-09T12:02:07;14.10;1.00
5930;DHT22;2990;48.746;9.236;2023-04-09T12:04:33;14.30;1.00
5930;DHT22;2990;48.746;9.236;2023-04-09T12:06:59;14.50;1.00
5930;DHT22;2990;48.746;9.236;2023-04-09T12:09:24;14.40;1.00
5930;DHT22;2990;48.746;9.236;2023-04-09T12:11:50;14.70;1.00
5930;DHT22;2990;48.746;9.236;2023-04-09T12:14:17;14.50;1.00
5930;DHT22;2990;48.746;9.236;2023-04-09T12:16:44;14.60;1.00
5930;DHT22;2990;48.746;9.236;2023-04-09T12:19:11;14.80;1.00
5930;DHT22;2990;48.746;9.236;2023-04-09T12:21:50;15.20;1.00
5930;DHT22;2990;48.746;9.236;2023-04-09T12:24:18;15.10;1.00
5930;DHT22;2990;48.746;9.236;2023-04-09T12:26:45;15.30;1.00
5930;DHT22;2990;48.746;9.236;2023-04-09T12:29:12;15.60;1.00
5930;DHT22;2990;48.746;9.236;2023-04-09T12:31:37;15.90;1.00
5930;DHT22;2990;48.746;9.236;2023-04-09T12:34:03;15.90;1.00
5930;DHT22;2990;48.746;9.236;2023-04-09T12:36:28;15.60;1.00
5930;DHT22;2990;48.746;9.236;2023-04-09T12:38:54;15.50;1.00
5930;DHT22;2990;48.746;9.236;2023-04-09T12:41:20;15.80;1.00
5930;DHT22;2990;48.746;9.236;2023-04-09T12:43:46;15.80;1.00
5930;DHT22;2990;48.746;9.236;2023-04-09T12:46:12;15.90;1.00
5930;DHT22;2990;48.746;9.236;2023-04-09T12:48:38;15.60;1.00
5930;DHT22;2990;48.746;9.236;2023-04-09T12:51:04;15.40;1.00
5930;DHT22;2990;48.746;9.236;2023-04-09T12:53:30;14.90;1.00
5930;DHT22;2990;48.746;9.236;2023-04-09T12:55:56;14.50;5.40
5930;DHT22;2990;48.746;9.236;2023-04-09T12:58:22;14.40;1.00
5930;DHT22;2990;48.746;9.236;2023-04-09T13:00:47;14.40;7.30
5930;DHT22;2990;48.746;9.236;2023-04-09T13:03:13;14.30;1.00
5930;DHT22;2990;48.746;9.236;2023-04-09T13:05:41;14.60;1.00
5930;DHT22;2990;48.746;9.236;2023-04-09T13:08:07;14.80;1.00
5930;DHT22;2990;48.746;9.236;2023-04-09T13:10:32;15.00;1.00
5930;DHT22;2990;48.746;9.236;2023-04-09T13:12:58;14.90;1.00
5930;DHT22;2990;48.746;9.236;2023-04-09T13:15:24;14.90;1.00
5930;DHT22;2990;48.746;9.236;2023-04-09T13:17:49;15.10;1.00
5930;DHT22;2990;48.746;9.236;2023-04-09T13:20:15;15.20;1.00
5930;DHT22;2990;48.746;9.236;2023-04-09T13:22:41;15.40;1.00
5930;DHT22;2990;48.746;9.236;2023-04-09T13:25:06;15.60;1.00
5930;DHT22;2990;48.746;9.236;2023-04-09T13:27:32;15.60;1.00
5930;DHT22;2990;48.746;9.236;2023-04-09T13:29:57;15.60;1.00
5930;DHT22;2990;48.746;9.236;2023-04-09T13:32:23;15.50;1.00
5930;DHT22;2990;48.746;9.236;2023-04-09T13:34:49;15.60;1.00
5930;DHT22;2990;48.746;9.236;2023-04-09T13:37:15;15.40;1.00
5930;DHT22;2990;48.746;9.236;2023-04-09T13:39:42;15.30;1.00
5930;DHT22;2990;48.746;9.236;2023-04-09T13:42:08;15.00;1.00
5930;DHT22;2990;48.746;9.236;2023-04-09T13:44:34;14.90;1.00
5930;DHT22;2990;48.746;9.236;2023-04-09T13:46:59;15.00;1.00
5930;DHT22;2990;48.746;9.236;2023-04-09T13:49:25;15.10;1.00
5930;DHT22;2990;48.746;9.236;2023-04-09T13:51:51;15.20;1.00
5930;DHT22;2990;48.746;9.236;2023-04-09T13:54:17;15.00;1.00
5930;DHT22;2990;48.746;9.236;2023-04-09T13:56:43;15.20;1.00
5930;DHT22;2990;48.746;9.236;2023-04-09T13:59:09;15.30;1.00
5930;DHT22;2990;48.746;9.236;2023-04-09T14:01:35;15.40;1.00
5930;DHT22;2990;48.746;9.236;2023-04-09T14:04:01;15.60;1.00
5930;DHT22;2990;48.746;9.236;2023-04-09T14:06:26;15.50;1.00
5930;DHT22;2990;48.746;9.236;2023-04-09T14:08:52;15.50;1.00
5930;DHT22;2990;48.746;9.236;2023-04-09T14:11:18;15.40;1.00
5930;DHT22;2990;48.746;9.236;2023-04-09T14:13:43;15.30;1.00
5930;DHT22;2990;48.746;9.236;2023-04-09T14:16:09;15.30;1.00
5930;DHT22;2990;48.746;9.236;2023-04-09T14:18:35;15.30;1.00
5930;DHT22;2990;48.746;9.236;2023-04-09T14:21:00;15.40;1.00
5930;DHT22;2990;48.746;9.236;2023-04-09T14:23:26;15.20;1.00
5930;DHT22;2990;48.746;9.236;2023-04-09T14:25:52;15.10;1.00
5930;DHT22;2990;48.746;9.236;2023-04-09T14:28:18;15.00;1.00
5930;DHT22;2990;48.746;9.236;2023-04-09T14:30:44;15.40;1.00
5930;DHT22;2990;48.746;9.236;2023-04-09T14:33:09;15.50;1.00
5930;DHT22;2990;48.746;9.236;2023-04-09T14:35:35;15.70;1.00
5930;DHT22;2990;48.746;9.236;2023-04-09T14:38:01;15.90;1.00
5930;DHT22;2990;48.746;9.236;2023-04-09T14:40:30;15.90;1.00
5930;DHT22;2990;48.746;9.236;2023-04-09T14:42:57;15.90;1.00
5930;DHT22;2990;48.746;9.236;2023-04-09T14:45:22;15.70;1.00
5930;DHT22;2990;48.746;9.236;2023-04-09T14:47:48;15.60;1.00
5930;DHT22;2990;48.746;9.236;2023-04-09T14:50:13;15.50;1.00
5930;DHT22;2990;48.746;9.236;2023-04-09T14:52:39;15.40;1.00
5930;DHT22;2990;48.746;9.236;2023-04-09T14:55:05;15.40;1.00
5930;DHT22;2990;48.746;9.236;2023-04-09T14:57:39;15.30;1.00
5930;DHT22;2990;48.746;9.236;2023-04-09T15:00:09;15.40;1.00
5930;DHT22;2990;48.746;9.236;2023-04-09T15:02:35;15.30;1.00
5930;DHT22;2990;48.746;9.236;2023-04-09T15:05:01;15.10;1.00
5930;DHT22;2990;48.746;9.236;2023-04-09T15:07:27;15.10;1.00
5930;DHT22;2990;48.746;9.236;2023-04-09T15:09:53;15.00;1.00
5930;DHT22;2990;48.746;9.236;2023-04-09T15:12:18;14.80;1.00
5930;DHT22;2990;48.746;9.236;2023-04-09T15:14:44;14.70;1.00
5930;DHT22;2990;48.746;9.236;2023-04-09T15:17:10;14.40;1.00
5930;DHT22;2990;48.746;9.236;2023-04-09T15:19:35;14.60;1.00
5930;DHT22;2990;48.746;9.236;2023-04-09T15:22:01;14.70;1.00
5930;DHT22;2990;48.746;9.236;2023-04-09T15:24:27;14.50;1.00
5930;DHT22;2990;48.746;9.236;2023-04-09T15:26:52;14.40;1.00
5930;DHT22;2990;48.746;9.236;2023-04-09T15:29:18;14.50;1.00
5930;DHT22;2990;48.746;9.236;2023-04-09T15:31:43;14.80;1.00
5930;DHT22;2990;48.746;9.236;2023-04-09T15:34:09;15.00;1.00
5930;DHT22;2990;48.746;9.236;2023-04-09T15:36:35;15.00;1.00
5930;DHT22;2990;48.746;9.236;2023-04-09T15:39:02;14.80;1.00
5930;DHT22;2990;48.746;9.236;2023-04-09T15:41:28;14.60;1.00
5930;DHT22;2990;48.746;9.236;2023-04-09T15:43:56;14.30;1.00
5930;DHT22;2990;48.746;9.236;2023-04-09T15:46:22;14.20;1.00
5930;DHT22;2990;48.746;9.236;2023-04-09T15:48:48;14.10;1.00
5930;DHT22;2990;48.746;9.236;2023-04-09T15:51:13;14.10;1.00
5930;DHT22;2990;48.746;9.236;2023-04-09T15:53:39;14.00;1.00
5930;DHT22;2990;48.746;9.236;2023-04-09T15:56:05;14.00;1.00
5930;DHT22;2990;48.746;9.236;2023-04-09T15:58:31;14.10;1.00
5930;DHT22;2990;48.746;9.236;2023-04-09T16:00:56;14.10;1.00
5930;DHT22;2990;48.746;9.236;2023-04-09T16:03:22;14.10;1.00
5930;DHT22;2990;48.746;9.236;2023-04-09T16:05:51;14.00;1.00
5930;DHT22;2990;48.746;9.236;2023-04-09T16:08:16;14.20;1.00
5930;DHT22;2990;48.746;9.236;2023-04-09T16:10:42;14.20;1.00
5930;DHT22;2990;48.746;9.236;2023-04-09T16:13:07;14.10;1.00
5930;DHT22;2990;48.746;9.236;2023-04-09T16:15:33;14.10;1.00
5930;DHT22;2990;48.746;9.236;2023-04-09T16:18:01;14.20;1.00
5930;DHT22;2990;48.746;9.236;2023-04-09T16:20:26;14.10;4.00
5930;DHT22;2990;48.746;9.236;2023-04-09T16:22:53;14.20;1.00
5930;DHT22;2990;48.746;9.236;2023-04-09T16:25:19;14.70;1.00
5930;DHT22;2990;48.746;9.236;2023-04-09T16:27:44;15.90;1.00
5930;DHT22;2990;48.746;9.236;2023-04-09T16:30:10;17.20;1.00
5930;DHT22;2990;48.746;9.236;2023-04-09T16:32:36;17.80;1.00
5930;DHT22;2990;48.746;9.236;2023-04-09T16:35:01;17.50;1.00
5930;DHT22;2990;48.746;9.236;2023-04-09T16:37:27;16.90;1.00
5930;DHT22;2990;48.746;9.236;2023-04-09T16:39:53;15.80;1.00
5930;DHT22;2990;48.746;9.236;2023-04-09T16:42:19;15.50;1.00
5930;DHT22;2990;48.746;9.236;2023-04-09T16:44:44;14.90;1.00
5930;DHT22;2990;48.746;9.236;2023-04-09T16:47:10;14.50;1.00
5930;DHT22;2990;48.746;9.236;2023-04-09T16:49:36;14.00;1.00
5930;DHT22;2990;48.746;9.236;2023-04-09T16:52:01;13.80;1.00
5930;DHT22;2990;48.746;9.236;2023-04-09T16:54:27;13.50;1.00
5930;DHT22;2990;48.746;9.236;2023-04-09T16:56:53;13.30;3.00